Time;durP1;ratioP1;P1;durP2;ratioP2;P2;SDS_P1;SDS_P2;PMS_P1;PMS_P2;Temp;Humidity;BMP_temperature;BMP_pressure;BME280_temperature;BME280_humidity;BME280_pressure;Samples;Min_cycle;Max_cycle;Signal;HPM_P1;HPM_P2
2023/02/15 00:00:10;;;;;;;136.73;38.97;;;0.30;99.90;;;-1.50;100.00;102823.00;4947474;28;20109;-83
2023/02/15 00:02:37;;;;;;;222.05;67.90;;;0.30;99.90;;;-1.47;100.00;102835.13;4931621;28;20070;-83
2023/02/15 00:05:02;;;;;;;180.85;47.65;;;0.30;99.90;;;-1.49;100.00;102834.19;4939317;28;20154;-84
2023/02/15 00:07:30;;;;;;;188.32;65.30;;;0.30;99.90;;;-1.50;100.00;102829.88;4928925;28;20041;-83
2023/02/15 00:10:03;;;;;;;227.40;77.68;;;0.30;99.90;;;-1.54;100.00;102834.03;4959204;28;20038;-84
2023/02/15 00:12:29;;;;;;;161.90;45.65;;;0.30;99.90;;;-1.53;100.00;102824.59;4928705;28;20046;-84
2023/02/15 00:14:55;;;;;;;160.55;37.42;;;0.20;99.90;;;-1.51;100.00;102822.94;4941647;28;20096;-83
2023/02/15 00:17:21;;;;;;;146.73;36.75;;;0.20;99.90;;;-1.53;100.00;102825.47;4892997;28;20118;-85
2023/02/15 00:19:47;;;;;;;159.95;38.55;;;0.20;99.90;;;-1.55;100.00;102837.47;4906725;28;20035;-84
2023/02/15 00:22:24;;;;;;;150.68;39.40;;;0.20;99.90;;;-1.56;100.00;102834.81;4940845;28;20705;-84
2023/02/15 00:24:50;;;;;;;148.57;34.03;;;0.20;99.90;;;-1.63;100.00;102836.28;4925703;28;20050;-85
2023/02/15 00:27:16;;;;;;;144.70;34.55;;;0.10;99.90;;;-1.66;100.00;102821.56;4940002;28;20053;-84
2023/02/15 00:29:49;;;;;;;146.80;36.38;;;0.20;99.90;;;-1.60;100.00;102828.63;4905667;28;20501;-84
2023/02/15 00:32:15;;;;;;;150.25;37.83;;;0.20;99.90;;;-1.61;100.00;102821.72;4928260;28;20434;-83
2023/02/15 00:34:41;;;;;;;150.98;36.95;;;0.20;99.90;;;-1.61;100.00;102829.47;4932761;28;20141;-85
2023/02/15 00:37:07;;;;;;;117.40;32.85;;;0.20;99.90;;;-1.63;100.00;102818.19;4908305;28;20039;-84
2023/02/15 00:39:41;;;;;;;105.47;32.38;;;;;;;-1.58;100.00;102808.91;4896520;28;20068;-84
2023/02/15 00:42:09;;;;;;;113.32;33.38;;;0.20;99.90;;;-1.55;100.00;102809.03;4942948;28;20830;-84
2023/02/15 00:44:35;;;;;;;117.70;34.08;;;0.30;99.90;;;-1.47;100.00;102807.63;4909966;28;20062;-85
2023/02/15 00:47:06;;;;;;;110.85;33.40;;;0.30;99.90;;;-1.47;100.00;102801.53;4894032;28;20061;-85
2023/02/15 00:49:32;;;;;;;118.45;33.22;;;;;;;-1.47;100.00;102802.44;4896094;28;20054;-84
2023/02/15 00:51:58;;;;;;;111.78;32.15;;;0.30;99.90;;;-1.49;100.00;102796.34;4958183;28;20113;-84
2023/02/15 00:54:23;;;;;;;114.18;33.20;;;0.30;99.90;;;-1.42;100.00;102794.00;4909543;28;20110;-83
2023/02/15 00:56:52;;;;;;;145.55;35.97;;;;;;;-1.40;100.00;102792.31;4903507;28;20043;-85
2023/02/15 00:59:25;;;;;;;138.18;37.17;;;0.30;99.90;;;-1.47;100.00;102786.94;4891711;28;20109;-84
2023/02/15 01:01:51;;;;;;;118.28;34.70;;;0.30;99.90;;;-1.42;100.00;102794.88;4879690;28;20038;-83
2023/02/15 01:04:17;;;;;;;123.78;34.15;;;0.30;99.90;;;-1.42;100.00;102788.81;4915182;28;20047;-83
2023/02/15 01:06:43;;;;;;;126.57;34.75;;;0.40;99.90;;;-1.37;100.00;102792.44;4919210;28;20056;-83
2023/02/15 01:09:14;;;;;;;120.93;33.88;;;;;;;-1.36;100.00;102789.91;4924397;28;20538;-83
2023/02/15 01:11:40;;;;;;;114.50;32.75;;;0.40;99.90;;;-1.36;100.00;102789.91;4966983;28;20018;-83
2023/02/15 01:14:05;;;;;;;121.93;35.20;;;0.40;99.90;;;-1.37;100.00;102784.69;4926161;28;20040;-82
2023/02/15 01:16:31;;;;;;;121.03;36.25;;;0.40;99.90;;;-1.37;100.00;102785.56;4934526;28;20045;-84
2023/02/15 01:18:57;;;;;;;114.50;33.75;;;0.40;99.90;;;-1.40;100.00;102779.38;4927241;28;20329;-83
2023/02/15 01:21:30;;;;;;;114.40;32.78;;;0.40;99.90;;;-1.37;100.00;102790.72;4972214;28;20096;-82
2023/02/15 01:23:55;;;;;;;124.88;34.65;;;0.40;99.90;;;-1.35;100.00;102780.44;4922327;28;20034;-81
2023/02/15 01:26:21;;;;;;;121.05;34.25;;;0.40;99.90;;;-1.36;100.00;102787.34;4942918;28;20478;-82
2023/02/15 01:28:47;;;;;;;126.65;35.35;;;0.40;99.90;;;-1.45;100.00;102780.13;4930205;28;20038;-82
2023/02/15 01:31:26;;;;;;;132.13;34.47;;;0.40;99.90;;;-1.43;100.00;102784.47;4932615;28;20477;-81
2023/02/15 01:33:52;;;;;;;130.93;35.00;;;0.30;99.90;;;-1.46;100.00;102775.78;4919878;28;20541;-82
2023/02/15 01:36:18;;;;;;;135.75;35.03;;;0.30;99.90;;;-1.45;100.00;102782.72;4944713;28;20043;-81
2023/02/15 01:38:45;;;;;;;129.95;37.33;;;0.30;99.90;;;-1.45;100.00;102774.97;4902915;28;20038;-81
2023/02/15 01:41:32;;;;;;;137.35;37.08;;;0.30;99.90;;;-1.45;100.00;102772.38;4945623;28;20102;-81
2023/02/15 01:44:01;;;;;;;137.27;35.90;;;0.30;99.90;;;-1.51;100.00;102761.81;4930915;28;20069;-81
2023/02/15 01:46:40;;;;;;;127.20;35.33;;;0.30;99.90;;;-1.49;100.00;102762.75;4923311;28;20061;-81
2023/02/15 01:49:20;;;;;;;135.90;34.22;;;0.20;99.90;;;-1.62;100.00;102763.16;4926007;28;20450;-79
2023/02/15 01:51:50;;;;;;;147.68;34.90;;;0.20;99.90;;;-1.70;100.00;102756.81;4935953;28;20026;-80
2023/02/15 01:54:27;;;;;;;144.82;33.83;;;0.10;99.90;;;-1.82;100.00;102749.47;4864806;28;20153;-80
2023/02/15 01:57:09;;;;;;;147.18;35.75;;;0.10;99.90;;;-1.80;100.00;102747.84;4940098;28;20149;-80
2023/02/15 01:59:39;;;;;;;146.07;34.78;;;0.00;99.90;;;-1.83;100.00;102742.56;4942034;28;20038;-80
2023/02/15 02:02:08;;;;;;;149.15;35.38;;;0.00;99.90;;;-1.83;100.00;102746.88;4949276;28;20058;-79
2023/02/15 02:04:49;;;;;;;154.45;36.35;;;0.00;99.90;;;-1.88;100.00;102729.50;4942062;28;20116;-79
2023/02/15 02:07:22;;;;;;;137.68;36.03;;;0.00;99.90;;;-1.88;100.00;102734.66;4925852;28;20591;-79
2023/02/15 02:09:48;;;;;;;159.45;37.60;;;0.00;99.90;;;-1.87;100.00;102740.69;4952214;28;20070;-79
2023/02/15 02:12:17;;;;;;;145.52;35.05;;;0.00;99.90;;;-1.88;100.00;102734.66;4945648;28;20049;-79
2023/02/15 02:14:45;;;;;;;156.32;37.08;;;0.00;99.90;;;-1.86;100.00;102729.53;4943477;28;20034;-79
2023/02/15 02:17:59;;;;;;;136.35;36.28;;;-0.10;99.90;;;-1.89;100.00;102724.28;4954798;28;20034;-79
2023/02/15 02:21:12;;;;;;;148.75;35.15;;;-0.10;99.90;;;-1.96;100.00;102725.75;4937263;28;20495;-79
2023/02/15 02:24:06;;;;;;;150.18;34.85;;;-0.10;99.90;;;-1.98;100.00;102711.91;4949369;28;20061;-79
2023/02/15 02:27:41;;;;;;;153.82;38.22;;;-0.10;99.90;;;-1.95;100.00;102708.53;4949009;28;20058;-79
2023/02/15 02:30:32;;;;;;;142.45;36.90;;;-0.10;99.90;;;-1.92;100.00;102703.50;4923790;28;20056;-79
2023/02/15 02:33:21;;;;;;;149.50;36.80;;;-0.10;99.90;;;-1.86;100.00;102699.44;4969219;28;20034;-79
2023/02/15 02:36:11;;;;;;;142.65;36.90;;;-0.10;99.90;;;-1.87;100.00;102696.78;4949623;28;20509;-78
2023/02/15 02:39:11;;;;;;;146.70;35.08;;;-0.10;99.90;;;-1.88;100.00;102698.50;4958349;28;20041;-78
2023/02/15 02:41:52;;;;;;;167.32;37.05;;;-0.10;99.90;;;-1.87;100.00;102689.06;4958205;28;20125;-79
2023/02/15 02:44:53;;;;;;;142.40;38.22;;;0.00;99.90;;;-1.86;100.00;102689.13;4933134;28;20707;-79
2023/02/15 02:47:58;;;;;;;168.60;40.28;;;-0.10;99.90;;;-1.87;100.00;102664.09;4959646;28;20121;-79
2023/02/15 02:50:28;;;;;;;162.75;36.20;;;-0.10;99.90;;;-1.88;100.00;102670.09;4972934;28;20144;-79
2023/02/15 02:52:57;;;;;;;153.35;35.03;;;0.00;99.90;;;-1.86;100.00;102675.31;4932218;28;20058;-79
2023/02/15 02:55:31;;;;;;;166.95;38.03;;;-0.10;99.90;;;-1.94;100.00;102674.16;4908447;28;20595;-79
2023/02/15 02:58:07;;;;;;;163.63;37.80;;;-0.10;99.90;;;-1.99;100.00;102668.81;4985596;28;20595;-79
2023/02/15 03:00:37;;;;;;;;;;;-0.10;99.90;;;-2.03;100.00;102674.72;4941918;28;20041;-79
2023/02/15 03:03:14;;;;;;;172.77;37.42;;;-0.20;99.90;;;-2.04;100.00;102672.94;4950381;28;19953;-79
2023/02/15 03:05:47;;;;;;;174.45;38.40;;;-0.20;99.90;;;-2.11;100.00;102665.81;4947469;28;20043;-79
2023/02/15 03:08:21;;;;;;;187.13;38.30;;;-0.30;99.90;;;-2.09;100.00;102677.06;4910960;28;20038;-79
2023/02/15 03:10:52;;;;;;;181.05;40.05;;;-0.30;99.90;;;-2.07;100.00;102676.31;4923218;28;20683;-79
2023/02/15 03:13:19;;;;;;;188.43;40.92;;;-0.20;99.90;;;-2.04;100.00;102672.06;4948345;28;20614;-78
2023/02/15 03:18:52;;;;;;;202.33;41.43;;;-0.30;99.90;;;-2.06;100.00;102653.94;4949228;28;20462;-79
2023/02/15 03:21:49;;;;;;;206.95;39.60;;;-0.30;99.90;;;-2.11;100.00;102656.34;4972379;28;20030;-79
2023/02/15 03:24:24;;;;;;;;;;;-0.30;99.90;;;-2.17;100.00;102645.81;4927519;28;20124;-79
2023/02/15 03:26:54;;;;;;;188.85;37.83;;;-0.40;99.90;;;-2.22;100.00;102642.19;4932161;28;19917;-79
2023/02/15 03:29:32;;;;;;;232.20;41.40;;;-0.40;99.90;;;-2.28;100.00;102635.09;4936397;28;20046;-79
2023/02/15 03:32:03;;;;;;;193.32;40.95;;;-0.50;99.90;;;-2.30;100.00;102634.16;4957312;28;20129;-79
2023/02/15 03:34:33;;;;;;;202.00;42.95;;;-0.50;99.90;;;-2.31;100.00;102641.81;4917628;28;20070;-79
2023/02/15 03:37:18;;;;;;;226.98;42.95;;;-0.50;99.90;;;-2.33;100.00;102638.34;4937074;28;20469;-79
2023/02/15 03:43:11;;;;;;;235.38;44.55;;;-0.50;99.90;;;-2.36;100.00;102635.63;4958766;28;20044;-79
2023/02/15 03:45:54;;;;;;;234.25;41.80;;;-0.60;99.90;;;-2.38;100.00;102643.31;4959619;28;20126;-78
2023/02/15 03:48:33;;;;;;;233.15;44.03;;;-0.60;99.90;;;-2.40;100.00;102634.63;4964164;28;20121;-79
2023/02/15 03:53:52;;;;;;;218.75;41.78;;;-0.60;99.90;;;-2.54;100.00;102633.25;4963206;28;20580;-79
2023/02/15 03:56:17;;;;;;;231.50;40.83;;;-0.70;99.90;;;-2.50;100.00;102635.13;4932421;28;20031;-79
2023/02/15 04:04:37;;;;;;;232.95;45.28;;;-0.70;99.90;;;-2.53;100.00;102627.25;4963315;28;20088;-78
2023/02/15 04:07:07;;;;;;;223.15;45.30;;;-0.70;99.90;;;-2.54;100.00;102620.34;4962014;28;22253;-79
2023/02/15 04:12:17;;;;;;;214.10;43.30;;;-0.70;99.90;;;-2.54;100.00;102613.47;4958136;28;20060;-79
2023/02/15 04:17:30;;;;;;;213.57;42.80;;;-0.70;99.90;;;-2.56;100.00;102611.66;4983617;28;20050;-78
2023/02/15 04:25:32;;;;;;;212.50;42.70;;;-0.70;99.90;;;-2.51;100.00;102602.41;4958309;28;20542;-78
2023/02/15 04:27:58;;;;;;;233.60;42.95;;;-0.70;99.90;;;-2.49;100.00;102601.63;4951075;28;20035;-77
2023/02/15 04:30:26;;;;;;;237.40;42.10;;;-0.70;99.90;;;-2.53;100.00;102593.72;4955979;28;20396;-77
2023/02/15 04:32:58;;;;;;;202.68;41.70;;;-0.70;99.90;;;-2.54;100.00;102597.13;4941446;28;20572;-77
2023/02/15 04:35:25;;;;;;;202.10;39.90;;;-0.70;99.90;;;-2.63;100.00;102592.50;4948626;28;20030;-77
2023/02/15 04:37:51;;;;;;;230.82;42.03;;;-0.80;99.90;;;-2.63;100.00;102591.66;4959348;28;20090;-78
2023/02/15 04:40:17;;;;;;;212.18;39.28;;;-0.70;99.90;;;-2.65;100.00;102588.13;4951464;28;20030;-77
2023/02/15 04:42:43;;;;;;;197.63;40.70;;;-0.80;99.90;;;-2.67;100.00;102588.06;4946637;28;20090;-78
2023/02/15 04:45:09;;;;;;;205.70;41.00;;;-0.80;99.90;;;-2.67;100.00;102585.47;4933711;28;20034;-78
2023/02/15 04:47:37;;;;;;;200.50;42.00;;;-0.80;99.90;;;-2.66;100.00;102576.03;4946680;28;20039;-77
2023/02/15 04:50:04;;;;;;;207.27;39.20;;;-0.90;99.90;;;-2.66;100.00;102581.19;4976996;28;20050;-78
2023/02/15 04:52:29;;;;;;;190.52;37.58;;;-0.80;99.90;;;-2.69;100.00;102575.09;4929122;28;20038;-77
2023/02/15 04:54:55;;;;;;;216.57;42.97;;;-0.80;99.90;;;-2.65;100.00;102580.38;4929847;28;20173;-77
2023/02/15 04:57:21;;;;;;;196.23;43.42;;;-0.70;99.90;;;-2.54;100.00;102573.91;4936561;28;20601;-78
2023/02/15 04:59:47;;;;;;;218.27;44.45;;;-0.70;99.90;;;-2.39;100.00;102578.78;4939884;28;20109;-77
2023/02/15 05:02:22;;;;;;;213.95;41.88;;;-0.50;99.90;;;-2.29;100.00;102563.66;4945990;28;20224;-77
2023/02/15 05:04:47;;;;;;;173.53;35.10;;;-0.40;99.90;;;-2.12;100.00;102571.13;4949363;28;20067;-77
2023/02/15 05:07:14;;;;;;;221.82;44.78;;;-0.30;99.90;;;-1.94;100.00;102576.06;4986514;28;20381;-76
2023/02/15 05:09:40;;;;;;;281.98;48.60;;;-0.20;99.90;;;-1.82;100.00;102571.28;4973764;28;20030;-77
2023/02/15 05:12:06;;;;;;;250.70;47.13;;;-0.10;99.90;;;-1.73;100.00;102569.03;4972702;28;20034;-77
2023/02/15 05:14:32;;;;;;;320.98;48.83;;;0.10;99.90;;;-1.64;100.00;102560.72;4949113;28;20049;-78
2023/02/15 05:17:01;;;;;;;427.92;53.38;;;0.10;99.90;;;-1.56;100.00;102566.13;4960176;28;20118;-77
2023/02/15 05:19:27;;;;;;;639.65;59.67;;;0.20;99.90;;;-1.53;100.00;102563.66;4975675;28;20070;-77
2023/02/15 05:21:53;;;;;;;800.72;67.32;;;0.30;99.90;;;-1.50;100.00;102559.44;4960038;28;20114;-77
2023/02/15 05:30:11;;;;;;;1072.43;68.78;;;0.40;99.90;;;-1.36;100.00;102559.00;4937601;28;20063;-77
2023/02/15 05:32:40;;;;;;;1023.63;69.25;;;0.50;99.90;;;-1.36;100.00;102553.84;4934580;28;20062;-77
2023/02/15 05:35:07;;;;;;;953.83;65.47;;;0.50;99.90;;;-1.38;100.00;102550.31;4944887;28;20030;-78
2023/02/15 05:37:33;;;;;;;1037.43;70.15;;;0.50;99.90;;;-1.35;100.00;102551.31;4927774;28;20483;-76
2023/02/15 05:39:59;;;;;;;1211.18;75.30;;;0.50;99.90;;;-1.33;100.00;102543.63;4970008;28;20496;-77
2023/02/15 05:42:25;;;;;;;1065.47;69.50;;;0.50;99.90;;;-1.38;100.00;102545.16;4965570;28;20042;-77
2023/02/15 05:44:51;;;;;;;1373.10;84.15;;;0.50;99.90;;;-1.34;100.00;102549.59;4973108;28;20064;-78
2023/02/15 05:47:16;;;;;;;1046.43;70.20;;;0.30;99.90;;;-1.35;100.00;102542.69;4952845;28;20034;-77
2023/02/15 05:49:44;;;;;;;1036.03;68.85;;;0.50;99.90;;;-1.35;100.00;102548.72;4949551;28;20125;-78
2023/02/15 05:52:11;;;;;;;1148.45;72.68;;;0.60;99.90;;;-1.26;100.00;102550.72;4958705;28;20047;-77
2023/02/15 05:54:37;;;;;;;1175.57;74.60;;;0.60;99.90;;;-1.27;100.00;102551.56;4937213;28;20041;-77
2023/02/15 05:57:03;;;;;;;1208.55;73.07;;;0.60;99.90;;;-1.30;100.00;102548.88;4957131;28;20624;-77
2023/02/15 05:59:29;;;;;;;1087.15;69.70;;;0.60;99.90;;;-1.31;100.00;102547.13;4970442;28;20061;-77
2023/02/15 06:01:54;;;;;;;1112.55;69.00;;;0.60;99.90;;;-1.26;100.00;102542.97;4987770;28;20042;-78
2023/02/15 06:04:21;;;;;;;1104.57;71.07;;;0.60;99.90;;;-1.27;100.00;102539.50;4975328;28;20512;-77
2023/02/15 06:06:54;;;;;;;1093.75;71.07;;;0.60;99.90;;;-1.21;100.00;102545.69;4946680;28;20058;-77
2023/02/15 06:09:19;;;;;;;1172.57;70.55;;;0.60;99.90;;;-1.17;100.00;102551.00;4972057;28;20038;-78
2023/02/15 06:11:45;;;;;;;1172.90;69.25;;;0.60;99.90;;;-1.16;100.00;102545.00;4965927;28;20045;-77
2023/02/15 06:14:14;;;;;;;1071.28;69.65;;;0.60;99.90;;;-1.12;100.00;102538.25;4938495;28;20035;-78
2023/02/15 06:16:40;;;;;;;1193.90;76.88;;;0.70;99.90;;;-1.16;100.00;102539.84;4982067;28;20031;-77
2023/02/15 06:19:06;;;;;;;1101.25;70.93;;;0.70;99.90;;;-1.14;100.00;102530.44;4956146;28;20046;-77
2023/02/15 06:21:32;;;;;;;1095.80;69.55;;;0.70;99.90;;;-1.13;100.00;102539.06;4926788;28;20042;-77
2023/02/15 06:23:58;;;;;;;951.95;67.28;;;0.70;99.90;;;-1.13;100.00;102539.94;4966893;28;20510;-77
2023/02/15 06:26:24;;;;;;;1139.35;70.22;;;0.70;99.90;;;-1.10;100.00;102537.44;4948649;28;20057;-77
2023/02/15 06:28:49;;;;;;;1050.28;70.10;;;0.70;99.90;;;-1.10;100.00;102537.44;4979182;28;20434;-77
2023/02/15 06:31:15;;;;;;;1082.60;73.65;;;0.70;99.90;;;-1.07;100.00;102540.13;4965201;28;20034;-76
2023/02/15 06:33:41;;;;;;;1074.68;72.00;;;0.80;99.90;;;-1.06;100.00;102530.66;4980561;28;20037;-76
2023/02/15 06:36:09;;;;;;;1104.78;71.85;;;0.70;99.90;;;-1.07;100.00;102536.66;4945156;28;20042;-76
2023/02/15 06:38:35;;;;;;;1139.93;73.65;;;0.80;99.90;;;-1.04;100.00;102532.47;4980404;28;20438;-76
2023/02/15 06:41:01;;;;;;;1120.88;70.70;;;0.80;99.90;;;-0.99;100.00;102529.13;4963303;28;20041;-77
2023/02/15 06:43:26;;;;;;;1067.65;69.00;;;0.80;99.90;;;-0.98;100.00;102528.31;4973230;28;20038;-76
2023/02/15 06:45:52;;;;;;;1089.40;70.28;;;0.80;99.90;;;-0.99;100.00;102523.94;4960169;28;20042;-77
2023/02/15 06:48:18;;;;;;;999.20;65.78;;;0.80;99.90;;;-1.01;100.00;102525.63;4995044;28;20039;-77
2023/02/15 06:50:44;;;;;;;949.78;65.50;;;0.80;99.90;;;-0.95;100.00;102528.38;4978641;28;20035;-76
2023/02/15 06:53:12;;;;;;;1191.95;72.30;;;0.80;99.90;;;-0.93;100.00;102529.31;4989610;28;20109;-77
2023/02/15 06:55:38;;;;;;;1023.50;66.15;;;0.70;99.90;;;-1.18;100.00;102527.72;4962973;28;20030;-77
2023/02/15 06:58:03;;;;;;;1063.32;67.75;;;0.70;99.90;;;-1.10;100.00;102526.22;4978381;28;20064;-77
2023/02/15 07:00:29;;;;;;;967.95;62.97;;;0.80;99.90;;;-0.97;100.00;102532.63;4961040;28;20615;-77
2023/02/15 07:02:57;;;;;;;873.05;59.17;;;0.80;99.90;;;-1.00;100.00;102517.03;4947363;28;20048;-76
2023/02/15 07:05:30;;;;;;;956.85;60.67;;;0.80;99.90;;;-0.97;100.00;102517.09;4948592;28;20026;-77
2023/02/15 07:07:57;;;;;;;915.17;62.10;;;0.80;99.90;;;-0.97;100.00;102517.09;4942168;28;20132;-76
2023/02/15 07:10:23;;;;;;;876.53;61.92;;;0.80;99.90;;;-0.97;100.00;102527.47;4968060;28;20121;-79
2023/02/15 07:12:49;;;;;;;888.47;66.63;;;0.80;99.90;;;-0.98;100.00;102520.53;4971424;28;20100;-77
2023/02/15 07:15:17;;;;;;;709.70;58.38;;;0.80;99.90;;;-0.94;100.00;102518.09;4964211;28;20046;-76
2023/02/15 07:17:44;;;;;;;494.17;35.78;;;0.70;99.90;;;-1.14;100.00;102520.09;4971350;28;20391;-77
2023/02/15 07:20:18;;;;;;;628.70;44.80;;;0.70;99.90;;;-1.08;100.00;102525.44;4978724;28;20030;-77
2023/02/15 07:22:44;;;;;;;703.70;60.20;;;0.80;99.90;;;-0.98;100.00;102510.19;4978607;28;20035;-79
2023/02/15 07:25:11;;;;;;;741.15;63.13;;;0.80;99.90;;;-0.93;100.00;102506.94;4960265;28;20038;-76
2023/02/15 07:27:38;;;;;;;792.78;64.75;;;0.80;99.90;;;-0.90;100.00;102494.06;4952350;28;20043;-76
2023/02/15 07:30:06;;;;;;;745.55;64.22;;;0.90;99.90;;;-0.86;100.00;102495.06;4932108;28;20166;-77
2023/02/15 07:32:33;;;;;;;663.33;63.70;;;0.90;99.90;;;-0.73;100.00;102502.31;4966187;28;20026;-77
2023/02/15 07:34:59;;;;;;;745.38;64.75;;;1.00;99.90;;;-0.66;100.00;102504.25;4976240;28;20114;-77
2023/02/15 07:37:26;;;;;;;794.85;68.50;;;1.00;99.90;;;-0.65;100.00;102506.00;4976727;28;20047;-76
2023/02/15 07:39:52;;;;;;;807.05;69.20;;;1.00;99.90;;;-0.65;100.00;102500.84;4987571;28;20049;-76
2023/02/15 07:42:19;;;;;;;723.05;65.75;;;1.10;99.90;;;-0.63;100.00;102496.59;4969864;28;20422;-76
2023/02/15 07:44:45;;;;;;;942.05;72.32;;;1.10;99.90;;;-0.68;100.00;102492.97;4979377;28;20027;-76
2023/02/15 07:47:11;;;;;;;928.00;69.93;;;1.10;99.90;;;-0.58;100.00;102488.94;4977876;28;20110;-77
2023/02/15 07:49:38;;;;;;;916.25;72.25;;;1.20;99.90;;;-0.51;100.00;102485.69;4980542;28;20569;-76
2023/02/15 07:52:04;;;;;;;1285.03;82.22;;;1.20;99.90;;;-0.48;100.00;102482.28;4979085;28;20642;-76
2023/02/15 07:54:32;;;;;;;1354.82;90.40;;;1.20;99.90;;;-0.41;100.00;102486.81;4978765;28;20557;-76
2023/02/15 07:56:58;;;;;;;1165.68;82.50;;;1.30;99.90;;;-0.24;100.00;102493.31;4976382;28;20034;-76
2023/02/15 07:59:24;;;;;;;1195.25;79.50;;;1.30;99.90;;;-0.29;100.00;102487.13;4978051;28;20041;-76
2023/02/15 08:01:50;;;;;;;1215.55;82.45;;;1.40;99.90;;;-0.25;100.00;102491.53;4982941;28;20026;-76
2023/02/15 08:04:17;;;;;;;1197.03;79.75;;;1.40;99.90;;;-0.23;100.00;102484.69;4957502;28;20034;-77
2023/02/15 08:06:43;;;;;;;1461.55;87.38;;;1.40;99.90;;;-0.25;100.00;102482.91;4967990;28;20779;-77
2023/02/15 08:09:11;;;;;;;1103.60;76.22;;;1.40;99.90;;;-0.19;100.00;102489.94;4976251;28;20038;-76
2023/02/15 08:11:42;;;;;;;1235.97;85.25;;;1.50;99.90;;;-0.17;100.00;102485.69;4979399;28;20027;-76
2023/02/15 08:14:20;;;;;;;1288.68;87.35;;;1.50;99.90;;;-0.11;100.00;102481.56;4978996;28;20499;-78
2023/02/15 08:16:49;;;;;;;1317.32;83.35;;;1.60;99.90;;;-0.03;100.00;102484.34;4959281;28;20034;-76
2023/02/15 08:19:29;;;;;;;1374.57;84.10;;;1.60;99.90;;;0.06;100.00;102481.97;4976852;28;20527;-76
2023/02/15 08:22:05;;;;;;;1376.63;86.10;;;1.70;99.90;;;0.13;100.00;102486.47;4992283;28;20086;-76
2023/02/15 08:24:34;;;;;;;1462.53;87.47;;;1.80;99.90;;;0.17;100.00;102477.06;4966405;28;20051;-77
2023/02/15 08:27:03;;;;;;;1468.53;91.80;;;1.80;99.90;;;0.09;100.00;102482.06;4953646;28;20109;-76
2023/02/15 08:29:31;;;;;;;1416.70;86.90;;;1.80;99.90;;;-0.01;100.00;102486.13;4984167;28;20034;-76
2023/02/15 08:32:08;;;;;;;1399.80;89.38;;;1.80;99.90;;;0.01;100.00;102477.53;4956095;28;20059;-76
2023/02/15 08:34:39;;;;;;;1535.90;91.70;;;1.80;99.90;;;0.07;100.00;102472.50;4970267;28;20110;-76
2023/02/15 08:37:05;;;;;;;1509.32;89.95;;;1.80;99.90;;;0.10;100.00;102475.16;4973870;28;20041;-76
2023/02/15 08:39:32;;;;;;;1614.07;95.70;;;1.80;99.90;;;0.13;100.00;102467.44;4977708;28;20053;-76
2023/02/15 08:41:57;;;;;;;1359.00;87.10;;;1.90;99.90;;;0.25;100.00;102469.47;4977549;28;20069;-75
2023/02/15 08:44:23;;;;;;;1464.53;90.70;;;1.90;99.90;;;0.36;100.00;102462.81;4974011;28;20550;-76
2023/02/15 08:46:50;;;;;;;1431.30;90.20;;;2.00;99.90;;;0.44;100.00;102468.19;4987288;28;20038;-76
2023/02/15 08:49:20;;;;;;;1460.88;95.82;;;2.10;99.90;;;0.55;100.00;102462.41;4981929;28;20044;-76
2023/02/15 08:51:46;;;;;;;1631.43;95.82;;;2.20;99.90;;;0.71;100.00;102454.97;4979040;28;20495;-76
2023/02/15 08:54:16;;;;;;;1384.90;87.03;;;2.20;99.90;;;0.82;100.00;102450.88;4977498;28;20039;-76
2023/02/15 08:56:45;;;;;;;1418.03;88.03;;;2.30;99.90;;;0.87;100.00;102458.78;4979264;28;20058;-76
2023/02/15 08:59:22;;;;;;;1486.93;92.80;;;2.40;99.90;;;0.91;100.00;102451.09;4966682;28;20080;-76
2023/02/15 09:01:51;;;;;;;1576.78;94.82;;;2.50;99.90;;;0.98;100.00;102447.78;4981591;28;20110;-76
2023/02/15 09:04:17;;;;;;;1582.20;97.90;;;2.50;99.90;;;1.06;100.00;102436.66;4979146;28;20038;-75
2023/02/15 09:06:45;;;;;;;1332.78;91.10;;;2.60;99.90;;;1.16;100.00;102441.19;4947194;28;20038;-75
2023/02/15 09:09:12;;;;;;;1302.57;90.30;;;2.70;99.90;;;1.31;100.00;102438.03;4980268;28;20088;-76
2023/02/15 09:11:48;;;;;;;1389.78;95.03;;;2.70;99.90;;;1.38;100.00;102433.00;4956455;28;20041;-76
2023/02/15 09:14:26;;;;;;;1720.43;102.78;;;2.80;99.90;;;1.41;100.00;102427.84;4982634;28;20034;-76
2023/02/15 09:16:58;;;;;;;1426.57;93.18;;;2.90;99.90;;;1.31;100.00;102431.13;4972080;28;20035;-76
2023/02/15 09:19:25;;;;;;;1383.30;88.93;;;2.90;99.90;;;1.33;100.00;102431.16;4964913;28;20035;-76
2023/02/15 09:21:54;;;;;;;1239.85;89.47;;;2.90;99.90;;;1.51;100.00;102425.41;4978386;28;20040;-76
2023/02/15 09:24:25;;;;;;;1416.45;93.55;;;3.00;99.90;;;1.59;100.00;102421.25;4982207;28;20065;-76
2023/02/15 09:26:54;;;;;;;1164.35;85.43;;;3.10;99.90;;;1.56;100.00;102416.00;4973100;28;20034;-77
2023/02/15 09:29:28;;;;;;;1058.97;86.32;;;3.10;99.90;;;1.55;100.00;102420.31;4977767;28;20046;-76
2023/02/15 09:31:55;;;;;;;1007.25;83.75;;;3.10;99.90;;;1.64;100.00;102423.09;4952048;28;20469;-76
2023/02/15 09:34:23;;;;;;;1073.03;84.28;;;3.20;99.90;;;1.72;100.00;102422.34;4980543;28;20467;-77
2023/02/15 09:36:53;;;;;;;1100.85;84.70;;;3.20;99.90;;;1.84;100.00;102417.34;4984168;28;20030;-76
2023/02/15 09:39:27;;;;;;;1045.85;82.60;;;3.30;99.90;;;1.96;100.00;102417.53;4970935;28;20031;-77
2023/02/15 09:42:50;;;;;;;686.05;74.85;;;3.40;99.90;;;2.13;100.00;102412.59;4971048;28;20043;-77
2023/02/15 09:46:04;;;;;;;931.42;80.88;;;3.60;99.90;;;2.24;100.00;102408.44;4977399;28;20066;-77
2023/02/15 09:48:40;;;;;;;896.97;78.20;;;3.70;99.90;;;2.43;100.00;102408.72;4943349;28;20531;-77
2023/02/15 09:51:38;;;;;;;966.13;83.18;;;3.80;99.90;;;2.31;100.00;102421.53;4970378;28;20064;-76
2023/02/15 09:54:31;;;;;;;970.42;79.82;;;3.80;99.90;;;2.34;100.00;102417.25;4976827;28;20030;-77
2023/02/15 09:57:26;;;;;;;628.22;72.60;;;3.80;99.90;;;2.44;100.00;102415.66;4945462;28;20039;-77
2023/02/15 10:00:24;;;;;;;832.58;78.70;;;3.90;99.90;;;2.49;100.00;102407.94;4972115;28;20109;-77
2023/02/15 10:03:19;;;;;;;632.20;73.72;;;4.00;99.90;;;2.62;100.00;102412.44;4975276;28;20035;-77
2023/02/15 10:06:20;;;;;;;722.30;77.93;;;4.10;99.90;;;2.75;100.00;102418.69;4939370;28;20129;-77
2023/02/15 10:09:36;;;;;;;539.30;68.53;;;4.20;99.90;;;2.80;100.00;102420.47;4964700;28;20031;-78
2023/02/15 10:12:04;;;;;;;659.05;73.07;;;4.20;99.90;;;2.87;100.00;102411.91;4971757;28;20117;-77
2023/02/15 10:15:29;;;;;;;688.38;76.50;;;4.30;99.90;;;2.96;100.00;102416.34;4953189;28;20403;-77
2023/02/15 10:19:04;;;;;;;603.10;74.50;;;4.40;99.90;;;3.08;100.00;102410.41;4921614;28;20045;-78
2023/02/15 10:21:54;;;;;;;642.47;73.90;;;4.50;99.90;;;3.18;100.00;102411.38;4952528;28;20039;-77
2023/02/15 10:24:45;;;;;;;505.35;73.65;;;4.60;99.90;;;3.33;100.00;102411.53;4980696;28;20038;-78
2023/02/15 10:27:22;;;;;;;499.85;72.93;;;4.60;99.90;;;3.36;100.00;102413.31;4978539;28;20054;-78
2023/02/15 10:30:20;;;;;;;668.00;74.28;;;4.70;99.90;;;3.26;100.00;102408.00;4914076;28;20048;-78
2023/02/15 10:33:03;;;;;;;620.67;78.70;;;4.70;99.90;;;3.33;100.00;102411.53;4978357;28;20034;-78
2023/02/15 10:35:40;;;;;;;497.45;71.68;;;4.70;99.90;;;3.33;100.00;102408.06;4973087;28;20034;-77
2023/02/15 10:39:04;;;;;;;550.00;75.18;;;4.70;99.90;;;3.40;100.00;102413.34;4965046;28;20034;-78
2023/02/15 10:42:04;;;;;;;468.35;72.80;;;4.80;99.90;;;3.43;100.00;102404.69;4939103;28;20039;-79
2023/02/15 10:45:28;;;;;;;444.60;75.28;;;4.80;99.90;;;3.40;100.00;102402.06;4968681;28;20323;-78
2023/02/15 10:48:39;;;;;;;450.77;70.78;;;4.80;99.90;;;3.44;100.00;102399.50;4948719;28;20503;-78